Flight Track Log - Related Links

Times and Time Zones

All times are in EDT time to prevent confusion due to time zone crossing. See the N873PC flight status page for this flight to view local times or setup timezone preferences in your user account.

Time Position Orientation Groundspeed Altitude Reporting Facility
EDT Latitude Longitude Course Direction KTS MPH feet Rate Location/Type
Sun 03:30:43 PM 47.6008 -116.7981 176° South 174 200 7,900  Level Seattle Center
Sun 03:31:44 PM 47.5528 -116.7858 170° South 173 199 9,500 1,131 Climbing Seattle Center
Sun 03:32:45 PM 47.4994 -116.7797 176° South 188 216 10,200 787 Climbing Seattle Center
Sun 03:33:46 PM 47.4408 -116.7694 173° South 209 241 11,100 976 Climbing Seattle Center
Sun 03:34:48 PM 47.3800 -116.7611 175° South 216 249 12,200 1,073 Climbing Seattle Center
Sun 03:35:49 PM 47.3189 -116.7514 174° South 221 254 13,300 1,033 Climbing Seattle Center
Sun 03:36:50 PM 47.2572 -116.7417 174° South 222 255 14,300 984 Climbing Seattle Center
Sun 03:37:51 PM 47.1944 -116.7325 174° South 226 260 15,300 1,082 Climbing Seattle Center
Sun 03:38:52 PM 47.1175 -116.7211 174° South 233 268 16,500 976 Climbing Seattle Center
Sun 03:39:54 PM 47.0503 -116.7114 174° South 242 278 17,300 829 Climbing Seattle Center
Sun 03:40:55 PM 46.9831 -116.6997 173° South 244 281 18,200 836 Climbing Seattle Center
Sun 03:41:56 PM 46.9153 -116.6914 175° South 244 281 19,000 885 Climbing Seattle Center
Sun 03:42:57 PM 46.8469 -116.6808 174° South 247 284 20,000 984 Climbing Seattle Center
Sun 03:43:58 PM 46.7786 -116.6700 174° South 245 282 21,000 976 Climbing Seattle Center
Sun 03:45:00 PM 46.7125 -116.6606 174° South 240 276 22,000 829 Climbing Seattle Center
Sun 03:46:01 PM 46.6469 -116.6525 175° South 236 272 22,700 689 Climbing Seattle Center
Sun 03:47:02 PM 46.5797 -116.6417 174° South 241 277 23,400 639 Climbing Seattle Center
Sun 03:48:03 PM 46.5117 -116.6314 174° South 244 281 24,000 639 Climbing Seattle Center
Sun 03:49:04 PM 46.4419 -116.6217 175° South 249 287 24,700 492 Climbing Seattle Center
Sun 03:50:05 PM 46.3567 -116.6092 174° South 256 295 25,000 146 Climbing Seattle Center
Sun 03:51:07 PM 46.2783 -116.5978 174° South 276 318 25,000  Level Seattle Center
Sun 03:52:08 PM 46.1964 -116.5872 175° South 291 335 25,000  Level Seattle Center
Sun 03:53:09 PM 46.1147 -116.5758 174° South 294 338 25,000  Level Seattle Center
Sun 03:54:10 PM 46.0306 -116.5631 174° South 301 346 25,000  Level Seattle Center
Sun 03:55:11 PM 45.9461 -116.5517 175° South 305 351 25,000  Level Seattle Center
Sun 03:56:12 PM 45.8622 -116.5394 174° South 303 349 25,000  Level Seattle Center
Sun 03:57:13 PM 45.7778 -116.5286 175° South 304 350 25,000  Level Seattle Center
Sun 03:58:14 PM 45.6939 -116.5158 174° South 303 349 25,000  Level Seattle Center
Sun 03:59:15 PM 45.5950 -116.5011 174° South 304 350 25,000  Level Seattle Center
Sun 04:00:17 PM 45.5103 -116.4908 175° South 305 351 25,000  Level Seattle Center
Sun 04:01:18 PM 45.4269 -116.4783 174° South 302 348 25,000  Level Seattle Center
Sun 04:02:19 PM 45.3431 -116.4675 175° South 301 346 25,000  Level Seattle Center
Sun 04:03:20 PM 45.2594 -116.4553 174° South 302 348 25,000  Level Seattle Center
Sun 04:04:21 PM 45.1772 -116.4425 174° South 298 343 25,000  Level Seattle Center
Sun 04:05:02 PM 45.1100 -116.4336 175° South 302 348 25,000 -350 Level Salt Lake Center
Sun 04:06:04 PM 45.0253 -116.4222 175° South 303 349 24,400 -871 Descending Salt Lake Center
Sun 04:07:06 PM 44.9353 -116.4097 174° South 318 366 23,200 -1,258 Descending Salt Lake Center
Sun 04:08:08 PM 44.8483 -116.3975 174° South 319 367 21,800 -1,113 Descending Salt Lake Center
Sun 04:09:10 PM 44.7686 -116.3856 174° South 296 341 20,900 -919 Descending Salt Lake Center
Sun 04:10:12 PM 44.6878 -116.3753 175° South 292 336 19,900 -1,210 Descending Salt Lake Center
Sun 04:11:14 PM 44.5844 -116.3606 174° South 306 352 18,400 -1,016 Descending Salt Lake Center
Sun 04:12:16 PM 44.4997 -116.3494 175° South 309 356 17,800 -780 Descending Salt Lake Center
Sun 04:13:17 PM 44.4181 -116.3150 163° South 311 358 16,800 -829 Descending Salt Lake Center
Sun 04:14:19 PM 44.3389 -116.2792 162° South 308 354 16,100 -809 Descending Salt Lake Center
Sun 04:14:46 PM 44.2919 -116.2397 149° Southeast 292 336 15,600 -871 Descending Salt Lake Center
Sun 04:15:21 PM 44.2428 -116.2683 203° Southwest 304 350 15,200 -716 Descending Salt Lake Center
Sun 04:15:53 PM 44.2025 -116.2386 152° Southeast 289 333 14,800 -677 Descending Salt Lake Center
Sun 04:16:23 PM 44.1617 -116.2633 203° Southwest 296 341 14,500 -716 Descending Salt Lake Center
Sun 04:17:00 PM 44.1167 -116.2356 156° South 289 333 14,000 -774 Descending Salt Lake Center
Sun 04:17:25 PM 44.0819 -116.2578 205° Southwest 288 331 13,700 -818 Descending Salt Lake Center
Sun 04:18:06 PM 44.0253 -116.2350 164° South 286 329 13,100 -774 Descending Salt Lake Center
Sun 04:18:27 PM 44.0017 -116.2519 207° Southwest 290 334 12,900 -806 Descending Salt Lake Center
Sun 04:19:13 PM 43.9394 -116.2319 167° South 288 331 12,200 -774 Descending Salt Lake Center
Sun 04:19:29 PM 43.9219 -116.2464 211° Southwest 288 331 12,100 -735 Descending Salt Lake Center
Sun 04:20:02 PM 43.8736 -116.2297 166° South 286 329 11,600 -774 Descending Salt Lake Center
Sun 04:20:31 PM 43.8439 -116.2419 197° South 282 325 11,300 -1,000 Descending Salt Lake Center
Sun 04:21:02 PM 43.7972 -116.2289 169° South 283 326 10,600 -1,452 Descending Salt Lake Center
Sun 04:21:33 PM 43.7497 -116.2353 186° South 282 325 9,800 -1,418 Descending Salt Lake Center
Sun 04:21:57 PM 43.7208 -116.2281 170° South 277 319 9,300 -1,742 Descending Salt Lake Center
Sun 04:22:35 PM 43.6786 -116.2294 181° South 256 295 8,000 -2,127 Descending Salt Lake Center
Sun 04:23:16 PM 43.6342 -116.2106 163° South 234 269 6,500 -1,452 Descending Salt Lake Center
Sun 04:23:37 PM 43.6175 -116.2064 170° South 230 265 6,500 -1,600 Level Salt Lake Center
Sun 04:24:16 PM 43.5853 -116.1861 155° Southeast 173 199 4,900 -1,839 Descending Salt Lake Center
Sun 04:24:39 PM 43.5714 -116.1742 148° Southeast 178 205 4,600 -1,279 Descending Salt Lake Center
Sun 04:25:17 PM 43.5542 -116.1842 203° Southwest 86 99 3,600 -290 Descending Salt Lake Center
Sun 04:25:41 PM 43.5425 -116.1886 195° South 149 171 4,300 1,750 Climbing Salt Lake Center
Sun 04:27:00 PM 43.5500 -116.2167 180° South  Level FlightAware Approximate
Sun 04:34:00 PM 43.5644 -116.2229 180° South  Level Estimated

Login

Don't have an account? Register now (free) for customized features, flight alerts, and more!